Time;durP1;ratioP1;P1;durP2;ratioP2;P2;SDS_P1;SDS_P2;PMS_P1;PMS_P2;Temp;Humidity;BMP_temperature;BMP_pressure;BME280_temperature;BME280_humidity;BME280_pressure;Samples;Min_cycle;Max_cycle;Signal;HPM_P1;HPM_P2
2023/06/03 00:02:49;;;;;;;5.17;3.87;;;;;17.10;96835.00;;;;4948102;29;20196;-72
2023/06/03 00:05:38;;;;;;;5.53;4.20;;;;;17.00;96832.00;;;;4951587;28;20204;-72
2023/06/03 00:08:27;;;;;;;4.10;3.70;;;;;16.90;96835.00;;;;4951381;28;20204;-71
2023/06/03 00:11:17;;;;;;;4.33;3.93;;;;;16.70;96835.00;;;;4951089;28;20228;-72
2023/06/03 00:14:07;;;;;;;4.77;4.17;;;;;16.60;96834.00;;;;4951779;28;20200;-72
2023/06/03 00:16:56;;;;;;;5.40;3.87;;;;;16.10;96831.00;;;;4951251;29;20204;-71
2023/06/03 00:19:47;;;;;;;4.67;3.80;;;;;16.00;96831.00;;;;4947827;28;20311;-71
2023/06/03 00:22:37;;;;;;;4.47;4.07;;;;;15.80;96841.00;;;;4950718;28;20210;-70
2023/06/03 00:25:26;;;;;;;6.90;3.77;;;;;16.30;96841.00;;;;4950844;28;20200;-71
2023/06/03 00:28:16;;;;;;;4.63;4.10;;;;;16.60;96831.00;;;;4950900;28;20262;-73
2023/06/03 00:31:05;;;;;;;5.10;3.73;;;;;16.60;96836.00;;;;4945658;28;20236;-73
2023/06/03 00:33:54;;;;;;;4.23;3.83;;;;;16.60;96834.00;;;;4943317;29;20207;-73
2023/06/03 00:36:43;;;;;;;6.07;3.80;;;;;16.30;96839.00;;;;4943849;29;20300;-73
2023/06/03 00:39:32;;;;;;;4.80;4.17;;;;;16.10;96833.00;;;;4950781;28;20207;-71
2023/06/03 00:42:21;;;;;;;5.00;3.60;;;;;15.90;96844.00;;;;4943773;28;20207;-72
2023/06/03 00:45:12;;;;;;;8.63;4.63;;;;;16.10;96840.00;;;;4944362;29;20204;-72
2023/06/03 00:48:01;;;;;;;5.83;4.30;;;;;16.10;96839.00;;;;4948060;29;20208;-72
2023/06/03 00:50:50;;;;;;;6.20;4.57;;;;;16.10;96836.00;;;;4947654;28;20228;-73
2023/06/03 00:53:40;;;;;;;4.73;4.23;;;;;16.10;96830.00;;;;4948666;28;20731;-72
2023/06/03 00:56:29;;;;;;;4.93;4.43;;;;;15.80;96839.00;;;;4949439;28;20599;-72
2023/06/03 00:59:19;;;;;;;9.53;3.83;;;;;16.00;96835.00;;;;4939653;28;20200;-72
2023/06/03 01:02:10;;;;;;;8.07;4.67;;;;;15.80;96840.00;;;;4950599;28;20214;-72
2023/06/03 01:05:01;;;;;;;7.40;4.30;;;;;15.50;96839.00;;;;4951895;28;20219;-73
2023/06/03 01:07:56;;;;;;;5.57;4.90;;;;;15.60;96837.00;;;;4947529;28;20210;-72
2023/06/03 01:10:47;;;;;;;4.95;4.50;;;;;15.40;96834.00;;;;4947089;28;20231;-72
2023/06/03 01:13:43;;;;;;;6.53;4.60;;;;;15.40;96845.00;;;;4949532;28;20243;-72
2023/06/03 01:16:34;;;;;;;6.40;5.70;;;;;15.00;96840.00;;;;4949797;28;20398;-72
2023/06/03 01:19:38;;;;;;;4.87;4.37;;;;;15.20;96843.00;;;;4950071;28;20334;-72
2023/06/03 01:22:28;;;;;;;4.87;4.47;;;;;15.00;96857.00;;;;4947729;29;20297;-72
2023/06/03 01:25:20;;;;;;;4.97;4.47;;;;;15.20;96856.00;;;;4946021;28;20204;-72
2023/06/03 01:28:09;;;;;;;6.13;5.37;;;;;15.40;96860.00;;;;4951268;28;20560;-72
2023/06/03 01:30:59;;;;;;;4.77;4.30;;;;;15.50;96848.00;;;;4965798;23;20231;-73
2023/06/03 01:33:49;;;;;;;5.60;4.90;;;;;15.70;96850.00;;;;4960459;28;20226;-73
2023/06/03 01:36:38;;;;;;;5.60;4.47;;;;;15.80;96849.00;;;;4957877;28;20206;-74
2023/06/03 01:39:27;;;;;;;6.17;4.73;;;;;16.00;96849.00;;;;4958413;28;20199;-74
2023/06/03 01:42:18;;;;;;;6.20;5.60;;;;;15.90;96849.00;;;;4959627;28;20212;-74
2023/06/03 01:45:07;;;;;;;10.40;4.53;;;;;15.60;96857.00;;;;4959227;28;20711;-74
2023/06/03 01:47:56;;;;;;;5.10;4.60;;;;;15.80;96844.00;;;;4960119;28;20210;-74
2023/06/03 01:50:46;;;;;;;6.90;4.30;;;;;15.50;96848.00;;;;4957562;28;20637;-74
2023/06/03 01:53:35;;;;;;;5.70;4.97;;;;;15.50;96842.00;;;;4958476;28;20238;-74
2023/06/03 01:56:24;;;;;;;10.13;5.17;;;;;15.60;96855.00;;;;4959519;28;21011;-74
2023/06/03 01:59:14;;;;;;;5.93;5.33;;;;;15.90;96860.00;;;;4970908;28;20203;-74
2023/06/03 02:02:04;;;;;;;5.37;4.70;;;;;15.80;96858.00;;;;4968294;28;20235;-74
2023/06/03 02:04:56;;;;;;;4.77;4.37;;;;;15.70;96858.00;;;;4970145;28;20223;-74
2023/06/03 02:07:45;;;;;;;5.73;5.23;;;;;15.70;96866.00;;;;4972829;28;20215;-74
2023/06/03 02:10:34;;;;;;;4.83;4.17;;;;;15.90;96856.00;;;;4958743;28;20736;-74
2023/06/03 02:13:23;;;;;;;8.00;4.27;;;;;15.80;96858.00;;;;4969864;28;20238;-74
2023/06/03 02:16:14;;;;;;;5.50;4.87;;;;;15.70;96865.00;;;;4963234;28;20200;-74
2023/06/03 02:19:04;;;;;;;7.10;5.40;;;;;15.50;96868.00;;;;4964008;28;20208;-75
2023/06/03 02:21:54;;;;;;;6.03;5.43;;;;;15.70;96867.00;;;;4967508;28;20239;-75
2023/06/03 02:24:46;;;;;;;6.43;4.33;;;;;15.60;96873.00;;;;4970023;28;20210;-74
2023/06/03 02:27:35;;;;;;;8.20;4.77;;;;;15.60;96868.00;;;;4971814;28;20204;-74
2023/06/03 02:30:25;;;;;;;5.17;4.30;;;;;15.40;96871.00;;;;4972239;28;20235;-74
2023/06/03 02:33:16;;;;;;;6.00;5.03;;;;;15.50;96871.00;;;;4976567;28;20230;-74
2023/06/03 02:36:06;;;;;;;6.63;4.60;;;;;15.60;96868.00;;;;4974605;28;20206;-74
2023/06/03 02:38:55;;;;;;;5.40;4.30;;;;;15.50;96874.00;;;;4975841;28;20204;-74
2023/06/03 02:41:46;;;;;;;4.93;4.43;;;;;15.90;96872.00;;;;4973690;28;20234;-74
2023/06/03 02:44:35;;;;;;;5.40;4.87;;;;;16.20;96878.00;;;;4972918;28;20203;-74
2023/06/03 02:47:24;;;;;;;5.80;5.07;;;;;16.40;96887.00;;;;4972822;28;20211;-74
2023/06/03 02:50:16;;;;;;;5.20;4.70;;;;;16.30;96884.00;;;;4972979;28;20231;-74
2023/06/03 02:53:05;;;;;;;7.10;6.17;;;;;16.30;96885.00;;;;4972173;28;20916;-74
2023/06/03 02:55:55;;;;;;;5.63;5.07;;;;;16.40;96885.00;;;;4969984;28;20217;-74
2023/06/03 02:58:44;;;;;;;6.93;4.63;;;;;16.50;96879.00;;;;4972423;28;20711;-74
2023/06/03 03:01:33;;;;;;;4.20;3.73;;;;;16.30;96889.00;;;;4972268;28;20733;-75
2023/06/03 03:04:23;;;;;;;6.83;5.07;;;;;16.30;96888.00;;;;4970332;28;20199;-75
2023/06/03 03:07:13;;;;;;;7.87;5.40;;;;;16.40;96888.00;;;;4972712;28;20215;-74
2023/06/03 03:10:02;;;;;;;6.03;5.27;;;;;16.40;96897.00;;;;4970865;28;20203;-74
2023/06/03 03:12:51;;;;;;;4.80;4.30;;;;;16.50;96899.00;;;;4968969;28;20758;-75
2023/06/03 03:15:40;;;;;;;5.90;5.30;;;;;16.50;96901.00;;;;4972107;28;20209;-74
2023/06/03 03:18:30;;;;;;;5.03;4.57;;;;;16.70;96912.00;;;;4971110;28;20211;-74
2023/06/03 03:21:19;;;;;;;5.17;4.50;;;;;16.70;96913.00;;;;4971477;28;20223;-74
2023/06/03 03:24:10;;;;;;;5.23;4.67;;;;;16.40;96916.00;;;;4973265;28;20231;-74
2023/06/03 03:27:00;;;;;;;4.10;3.63;;;;;16.20;96913.00;;;;4972570;28;20211;-74
2023/06/03 03:29:50;;;;;;;7.17;4.27;;;;;16.20;96918.00;;;;4971019;28;20200;-74
2023/06/03 03:32:39;;;;;;;7.83;4.37;;;;;15.80;96928.00;;;;4971420;28;20582;-74
2023/06/03 03:35:28;;;;;;;7.40;4.27;;;;;16.40;96927.00;;;;4970671;28;20230;-75
2023/06/03 03:38:18;;;;;;;9.53;4.80;;;;;16.60;96938.00;;;;4968460;28;20210;-75
2023/06/03 03:41:08;;;;;;;5.70;5.17;;;;;16.40;96932.00;;;;4970587;28;20605;-75
2023/06/03 03:43:58;;;;;;;6.87;5.23;;;;;16.60;96943.00;;;;4970134;28;20257;-74
2023/06/03 03:46:50;;;;;;;10.97;6.30;;;;;16.70;96956.00;;;;4966152;28;20210;-74
2023/06/03 03:49:39;;;;;;;5.67;4.87;;;;;16.90;96947.00;;;;4976045;28;20207;-75
2023/06/03 03:52:30;;;;;;;6.30;5.17;;;;;17.20;96954.00;;;;4969088;28;20203;-75
2023/06/03 03:55:20;;;;;;;5.20;4.70;;;;;17.30;96952.00;;;;4971094;28;20227;-75
2023/06/03 03:58:22;;;;;;;10.27;4.87;;;;;17.30;96959.00;;;;4970910;28;20222;-74
2023/06/03 04:01:13;;;;;;;5.67;5.00;;;;;17.40;96963.00;;;;4970790;28;20223;-74
2023/06/03 04:04:04;;;;;;;7.40;5.00;;;;;17.30;96970.00;;;;4968709;28;20237;-75
2023/06/03 04:06:56;;;;;;;5.13;4.63;;;;;17.40;96966.00;;;;4974998;28;20699;-75
2023/06/03 04:09:46;;;;;;;6.10;5.50;;;;;17.50;96972.00;;;;4971562;28;20219;-75
2023/06/03 04:12:36;;;;;;;4.97;4.47;;;;;17.50;96973.00;;;;4970663;28;20685;-75
2023/06/03 04:15:30;;;;;;;5.23;4.73;;;;;16.90;96972.00;;;;4974499;28;20246;-74
2023/06/03 04:18:21;;;;;;;6.77;5.10;;;;;16.30;96969.00;;;;4968279;28;20200;-75
2023/06/03 04:21:15;;;;;;;9.23;5.20;;;;;16.40;96972.00;;;;4970088;28;20307;-74
2023/06/03 04:24:06;;;;;;;6.30;5.67;;;;;16.30;96978.00;;;;4973281;28;20203;-74
2023/06/03 04:26:55;;;;;;;5.40;4.90;;;;;16.40;96976.00;;;;4970605;28;20215;-74
2023/06/03 04:29:44;;;;;;;5.97;4.93;;;;;16.60;96987.00;;;;4967374;28;20222;-74
2023/06/03 04:32:36;;;;;;;9.73;5.53;;;;;16.00;96991.00;;;;4969947;28;20207;-67
2023/06/03 04:35:25;;;;;;;5.23;4.60;;;;;16.30;97001.00;;;;4969175;28;20265;-73
2023/06/03 04:38:14;;;;;;;9.67;5.50;;;;;16.70;97002.00;;;;4965762;28;20229;-74
2023/06/03 04:41:03;;;;;;;8.57;5.13;;;;;17.10;97006.00;;;;4969421;28;20220;-74
2023/06/03 04:43:53;;;;;;;7.30;5.03;;;;;17.10;97005.00;;;;4969865;28;20199;-74
2023/06/03 04:46:45;;;;;;;7.50;4.97;;;;;16.70;97012.00;;;;4969056;28;20210;-72
2023/06/03 04:49:36;;;;;;;7.77;4.87;;;;;17.00;97003.00;;;;4968253;28;20742;-73
2023/06/03 04:52:25;;;;;;;6.70;5.07;;;;;17.40;97001.00;;;;4966497;28;20214;-73
2023/06/03 04:55:15;;;;;;;6.10;4.60;;;;;17.60;97008.00;;;;4970095;28;20231;-74
2023/06/03 04:58:05;;;;;;;9.27;4.83;;;;;17.70;97006.00;;;;4970574;28;20202;-73
2023/06/03 05:00:54;;;;;;;7.87;4.60;;;;;17.80;97017.00;;;;4975719;28;20230;-73
2023/06/03 05:03:44;;;;;;;6.43;5.80;;;;;17.60;97015.00;;;;4972538;28;20210;-76
2023/06/03 05:06:36;;;;;;;6.57;5.20;;;;;17.50;97020.00;;;;4970534;28;20578;-72
2023/06/03 05:09:25;;;;;;;6.03;4.17;;;;;17.00;97013.00;;;;4968524;28;20230;-75
2023/06/03 05:12:14;;;;;;;10.33;7.23;;;;;17.10;97018.00;;;;4966047;28;20698;-74
2023/06/03 05:15:04;;;;;;;9.40;6.93;;;;;17.00;97022.00;;;;4968332;28;20227;-73
2023/06/03 05:17:53;;;;;;;11.33;6.57;;;;;16.90;97011.00;;;;4968143;28;20206;-74
2023/06/03 05:20:43;;;;;;;8.37;5.77;;;;;16.90;97027.00;;;;4969449;28;20708;-74
2023/06/03 05:23:34;;;;;;;7.80;5.70;;;;;17.10;97026.00;;;;4975415;28;20218;-75
2023/06/03 05:26:23;;;;;;;5.60;4.80;;;;;17.10;97033.00;;;;4969658;28;20195;-75
2023/06/03 05:29:12;;;;;;;9.00;5.17;;;;;16.90;97028.00;;;;4972741;28;20714;-75
2023/06/03 05:32:01;;;;;;;4.87;4.37;;;;;17.50;97036.00;;;;4971810;28;20246;-75
2023/06/03 05:34:50;;;;;;;5.40;4.80;;;;;17.20;97041.00;;;;4970802;28;21017;-74
2023/06/03 05:37:39;;;;;;;6.93;4.47;;;;;16.50;97030.00;;;;4973782;28;20207;-71
2023/06/03 05:40:29;;;;;;;9.40;4.30;;;;;16.30;97031.00;;;;4974014;28;20241;-70
2023/06/03 05:43:19;;;;;;;4.77;4.00;;;;;16.50;97039.00;;;;4971744;28;20222;-68
2023/06/03 05:46:08;;;;;;;6.10;3.83;;;;;16.70;97039.00;;;;4972230;28;20203;-69
2023/06/03 05:48:57;;;;;;;7.20;4.57;;;;;16.80;97043.00;;;;4971367;28;20712;-71
2023/06/03 05:51:46;;;;;;;5.07;4.20;;;;;16.40;97047.00;;;;4968712;28;20720;-73
2023/06/03 05:54:36;;;;;;;7.07;4.27;;;;;16.70;97043.00;;;;4976490;28;20233;-72
2023/06/03 05:57:26;;;;;;;8.40;4.63;;;;;16.70;97048.00;;;;4973823;28;20207;-74
2023/06/03 06:00:16;;;;;;;6.00;4.53;;;;;17.00;97046.00;;;;4973858;28;20241;-73
2023/06/03 06:03:05;;;;;;;6.00;4.27;;;;;17.20;97049.00;;;;4971654;28;20207;-74
2023/06/03 06:05:55;;;;;;;7.60;4.47;;;;;17.10;97049.00;;;;4973595;28;20286;-74
2023/06/03 06:08:44;;;;;;;9.03;4.97;;;;;17.70;97055.00;;;;4974326;28;20227;-74
2023/06/03 06:11:34;;;;;;;7.63;4.70;;;;;18.00;97058.00;;;;4973114;28;20219;-73
2023/06/03 06:14:24;;;;;;;6.53;4.27;;;;;18.00;97062.00;;;;4974271;28;20204;-75
2023/06/03 06:17:16;;;;;;;10.07;5.03;;;;;18.10;97056.00;;;;4973101;28;20218;-75
2023/06/03 06:20:06;;;;;;;5.50;4.27;;;;;18.00;97053.00;;;;4971654;28;20274;-76
2023/06/03 06:22:55;;;;;;;9.73;4.40;;;;;18.50;97057.00;;;;4971178;28;20767;-75
2023/06/03 06:25:49;;;;;;;7.90;4.47;;;;;18.20;97057.00;;;;4972389;28;20226;-74
2023/06/03 06:28:38;;;;;;;6.40;5.70;;;;;18.10;97056.00;;;;4967922;28;20218;-74
2023/06/03 06:31:28;;;;;;;11.33;6.07;;;;;17.80;97062.00;;;;4966219;28;20905;-73
2023/06/03 06:34:18;;;;;;;4.20;3.80;;;;;18.30;97055.00;;;;4968333;28;20226;-74
2023/06/03 06:37:09;;;;;;;5.30;3.87;;;;;17.90;97064.00;;;;4974627;28;20226;-73
2023/06/03 06:39:59;;;;;;;7.33;4.07;;;;;17.00;97055.00;;;;4964975;28;20219;-67
2023/06/03 06:42:49;;;;;;;11.70;4.50;;;;;16.50;97055.00;;;;4972216;28;20624;-66
2023/06/03 06:45:38;;;;;;;5.80;4.03;;;;;17.00;97049.00;;;;4965878;28;20222;-69
2023/06/03 06:48:30;;;;;;;5.00;3.57;;;;;17.00;97054.00;;;;4971831;28;20199;-70
2023/06/03 06:51:20;;;;;;;5.53;3.80;;;;;17.20;97057.00;;;;4971050;28;20219;-70
2023/06/03 06:54:09;;;;;;;5.00;3.83;;;;;17.50;97055.00;;;;4973095;28;20211;-71
2023/06/03 06:56:58;;;;;;;3.40;3.10;;;;;17.30;97055.00;;;;4972017;28;20563;-73
2023/06/03 06:59:47;;;;;;;5.33;3.53;;;;;17.30;97059.00;;;;4960092;28;20208;-74
2023/06/03 07:02:36;;;;;;;4.03;3.47;;;;;17.10;97060.00;;;;4963729;28;20200;-72
2023/06/03 07:05:26;;;;;;;4.47;3.97;;;;;17.70;97065.00;;;;4964464;28;20211;-73
2023/06/03 07:08:15;;;;;;;6.10;4.30;;;;;18.10;97056.00;;;;4973130;28;20211;-74
2023/06/03 07:11:05;;;;;;;4.27;3.23;;;;;18.20;97058.00;;;;4965125;28;20234;-75
2023/06/03 07:13:54;;;;;;;6.70;3.20;;;;;18.30;97068.00;;;;4961182;28;20207;-75
2023/06/03 07:16:43;;;;;;;5.63;3.50;;;;;18.30;97068.00;;;;4971313;28;20455;-75
2023/06/03 07:19:38;;;;;;;5.13;3.30;;;;;18.60;97073.00;;;;4970356;28;20199;-75
2023/06/03 07:22:31;;;;;;;5.60;3.93;;;;;18.00;97072.00;;;;4963153;28;20200;-74
2023/06/03 07:25:31;;;;;;;5.27;3.33;;;;;18.60;97065.00;;;;4960334;28;20681;-73
2023/06/03 07:28:23;;;;;;;5.50;2.50;;;;;19.10;97069.00;;;;4960030;28;20777;-75
2023/06/03 07:31:12;;;;;;;5.13;3.87;;;;;18.70;97070.00;;;;4987147;23;20278;-70
2023/06/03 07:34:01;;;;;;;6.70;3.30;;;;;18.50;97061.00;;;;4979384;28;20219;-70
2023/06/03 07:36:52;;;;;;;5.00;3.80;;;;;19.10;97062.00;;;;4988240;28;20269;-70
2023/06/03 07:39:43;;;;;;;6.83;3.40;;;;;19.60;97063.00;;;;4979288;28;20628;-70
2023/06/03 07:42:32;;;;;;;4.90;3.10;;;;;18.90;97055.00;;;;4986490;28;20222;-71
2023/06/03 07:45:21;;;;;;;9.67;3.63;;;;;19.00;97060.00;;;;4982424;28;20667;-70
2023/06/03 07:48:14;;;;;;;4.43;3.87;;;;;19.20;97066.00;;;;4985859;28;20199;-71
2023/06/03 07:51:04;;;;;;;4.47;3.60;;;;;19.40;97059.00;;;;4986001;28;20235;-68
2023/06/03 07:53:56;;;;;;;5.57;3.63;;;;;20.20;97057.00;;;;4987505;28;20203;-71
2023/06/03 07:56:47;;;;;;;6.57;3.90;;;;;21.10;97059.00;;;;4990181;28;20234;-71
2023/06/03 07:59:36;;;;;;;6.57;3.97;;;;;21.40;97069.00;;;;4989495;28;20207;-69
2023/06/03 08:02:25;;;;;;;5.10;3.90;;;;;21.50;97073.00;;;;4988553;28;20226;-71
2023/06/03 08:05:15;;;;;;;6.50;3.53;;;;;21.40;97083.00;;;;4991931;28;20206;-70
2023/06/03 08:08:05;;;;;;;5.13;3.43;;;;;21.50;97075.00;;;;4988801;28;20218;-69
2023/06/03 08:10:54;;;;;;;4.23;3.30;;;;;21.60;97063.00;;;;4999425;28;20230;-69
2023/06/03 08:13:45;;;;;;;4.50;3.77;;;;;21.80;97069.00;;;;4988139;28;20202;-71
2023/06/03 08:16:35;;;;;;;6.33;4.60;;;;;21.80;97067.00;;;;4987585;28;20774;-71
2023/06/03 08:19:25;;;;;;;5.57;3.43;;;;;21.60;97077.00;;;;4987248;28;20576;-71
2023/06/03 08:22:31;;;;;;;6.97;4.00;;;;;21.50;97053.00;;;;4990219;28;20221;-70
2023/06/03 08:25:21;;;;;;;3.90;3.50;;;;;22.20;97058.00;;;;4989501;28;20284;-69
2023/06/03 08:28:10;;;;;;;3.70;3.30;;;;;23.00;97056.00;;;;4991566;28;20615;-71
2023/06/03 08:31:00;;;;;;;13.37;4.27;;;;;23.60;97061.00;;;;4988969;28;20238;-71
2023/06/03 08:33:49;;;;;;;6.83;3.30;;;;;23.50;97057.00;;;;4989437;28;20212;-71
2023/06/03 08:36:39;;;;;;;7.40;3.40;;;;;23.80;97055.00;;;;4991462;28;20222;-70
2023/06/03 08:39:28;;;;;;;10.90;3.93;;;;;24.00;97053.00;;;;4988617;28;20573;-71
2023/06/03 08:42:23;;;;;;;5.90;3.33;;;;;24.30;97047.00;;;;4988978;28;20767;-71
2023/06/03 08:45:12;;;;;;;3.33;3.00;;;;;23.30;97062.00;;;;4988809;28;20207;-70
2023/06/03 08:48:07;;;;;;;3.23;2.93;;;;;23.00;97052.00;;;;4988670;28;20583;-70
2023/06/03 08:51:04;;;;;;;4.03;3.07;;;;;23.20;97050.00;;;;4990857;28;20705;-70
2023/06/03 08:53:55;;;;;;;5.60;3.73;;;;;24.40;97042.00;;;;4987632;28;20652;-70
2023/06/03 08:56:46;;;;;;;7.00;3.90;;;;;23.80;97074.00;;;;4986242;28;20226;-71
2023/06/03 08:59:36;;;;;;;5.60;3.63;;;;;21.70;97070.00;;;;4989356;28;20202;-70
2023/06/03 09:02:27;;;;;;;7.43;4.40;;;;;21.00;97058.00;;;;4986765;28;20218;-70
2023/06/03 09:05:17;;;;;;;4.17;3.53;;;;;22.10;97072.00;;;;4986403;28;20672;-71
2023/06/03 09:08:06;;;;;;;8.47;3.67;;;;;22.70;97071.00;;;;4988613;28;20677;-69
2023/06/03 09:10:56;;;;;;;7.17;3.67;;;;;22.80;97071.00;;;;4989435;28;20234;-69
2023/06/03 09:13:47;;;;;;;6.77;4.50;;;;;23.10;97054.00;;;;4989105;28;20202;-69
2023/06/03 09:16:36;;;;;;;6.13;2.93;;;;;23.60;97062.00;;;;4989650;28;20230;-71
2023/06/03 09:19:27;;;;;;;3.47;3.17;;;;;24.20;97065.00;;;;4987447;28;20259;-71
2023/06/03 09:22:18;;;;;;;4.63;3.77;;;;;23.80;97078.00;;;;4985877;28;20234;-71
2023/06/03 09:25:08;;;;;;;7.67;3.47;;;;;24.10;97072.00;;;;4989539;28;20205;-71
2023/06/03 09:27:57;;;;;;;7.07;4.40;;;;;24.50;97064.00;;;;4987103;28;20202;-70
2023/06/03 09:30:46;;;;;;;4.57;4.17;;;;;22.60;97068.00;;;;4988160;28;20236;-72
2023/06/03 09:33:37;;;;;;;4.20;3.80;;;;;23.00;97066.00;;;;4985878;28;20205;-72
2023/06/03 09:36:27;;;;;;;8.33;4.37;;;;;24.10;97074.00;;;;4989212;28;20227;-70
2023/06/03 09:39:20;;;;;;;6.67;3.90;;;;;24.50;97062.00;;;;4988482;28;20257;-69
2023/06/03 09:42:10;;;;;;;5.00;3.87;;;;;21.80;97025.00;;;;4997216;28;20237;-69
2023/06/03 09:44:59;;;;;;;7.10;4.00;;;;;23.60;97053.00;;;;4987093;28;20203;-70
2023/06/03 09:47:48;;;;;;;4.93;4.20;;;;;23.90;97048.00;;;;4989095;28;20590;-71
2023/06/03 09:50:50;;;;;;;3.70;3.30;;;;;25.00;97065.00;;;;4986157;28;20614;-72
2023/06/03 09:53:40;;;;;;;7.03;3.80;;;;;26.70;97035.00;;;;4996202;28;20210;-72
2023/06/03 09:56:30;;;;;;;4.87;3.60;;;;;27.80;97038.00;;;;4984652;28;20720;-72
2023/06/03 09:59:21;;;;;;;11.70;3.90;;;;;27.40;97086.00;;;;4983550;28;20207;-70
2023/06/03 10:02:13;;;;;;;6.00;3.17;;;;;26.40;97090.00;;;;4988561;28;20235;-73
2023/06/03 10:05:03;;;;;;;6.07;3.20;;;;;26.30;97092.00;;;;4985331;28;20249;-72
2023/06/03 10:07:52;;;;;;;4.03;3.63;;;;;26.00;97085.00;;;;4987856;28;20207;-73
2023/06/03 10:10:56;;;;;;;5.40;2.97;;;;;25.80;97083.00;;;;4989110;28;20222;-73
2023/06/03 10:13:49;;;;;;;5.87;3.43;;;;;24.10;97102.00;;;;4992989;28;20206;-70
2023/06/03 10:16:38;;;;;;;7.47;3.40;;;;;25.40;97094.00;;;;4996265;28;20218;-70
2023/06/03 10:19:27;;;;;;;4.80;3.87;;;;;25.40;97098.00;;;;4994807;28;20269;-71
2023/06/03 10:22:18;;;;;;;4.23;2.87;;;;;25.20;97096.00;;;;4995636;28;20221;-70
2023/06/03 10:25:09;;;;;;;4.27;2.97;;;;;22.90;97101.00;;;;4993972;28;20728;-70
2023/06/03 10:27:58;;;;;;;2.83;2.50;;;;;24.30;97101.00;;;;4993329;28;20198;-70
2023/06/03 10:30:49;;;;;;;3.63;3.23;;;;;24.90;97105.00;;;;4991033;28;20252;-70
2023/06/03 10:33:38;;;;;;;7.47;3.33;;;;;23.80;97097.00;;;;4990746;28;20584;-68
2023/06/03 10:36:28;;;;;;;4.47;3.13;;;;;24.40;97094.00;;;;4994096;28;20211;-70
2023/06/03 10:39:17;;;;;;;7.37;3.60;;;;;25.20;97102.00;;;;4994888;28;20207;-68
2023/06/03 10:42:09;;;;;;;4.50;3.33;;;;;25.20;97099.00;;;;4994231;28;20245;-72
2023/06/03 10:44:59;;;;;;;4.80;3.17;;;;;25.60;97100.00;;;;4996071;28;20206;-71
2023/06/03 10:47:52;;;;;;;5.27;4.20;;;;;25.50;97094.00;;;;5002571;28;20206;-71
2023/06/03 10:50:54;;;;;;;4.00;3.23;;;;;25.40;97101.00;;;;5001083;28;20222;-69
2023/06/03 10:53:51;;;;;;;3.30;2.93;;;;;25.50;97103.00;;;;4999369;28;20213;-71
2023/06/03 10:56:46;;;;;;;5.23;3.13;;;;;25.10;97096.00;;;;4995545;28;20202;-72
2023/06/03 10:59:43;;;;;;;2.90;2.33;;;;;25.10;97092.00;;;;4997755;28;20206;-71
2023/06/03 11:03:06;;;;;;;4.20;2.97;;;;;23.70;97098.00;;;;4999728;28;21026;-71
2023/06/03 11:06:30;;;;;;;3.37;2.90;;;;;24.50;97074.00;;;;5000020;28;20206;-71
2023/06/03 11:09:35;;;;;;;3.83;3.03;;;;;25.50;97068.00;;;;5000545;28;20195;-71
2023/06/03 11:12:48;;;;;;;5.87;3.17;;;;;25.70;97088.00;;;;4998342;28;20852;-72
2023/06/03 11:15:59;;;;;;;3.90;3.10;;;;;25.50;97085.00;;;;4999465;28;20206;-69
2023/06/03 11:19:27;;;;;;;4.80;3.40;;;;;27.00;97058.00;;;;4997281;28;20222;-72
2023/06/03 11:22:45;;;;;;;5.27;3.30;;;;;27.60;97063.00;;;;4996879;28;20219;-72
2023/06/03 11:25:36;;;;;;;5.33;3.20;;;;;28.20;97060.00;;;;4992985;28;20329;-71
2023/06/03 11:28:29;;;;;;;5.13;3.50;;;;;26.00;97079.00;;;;4995361;28;20202;-69
2023/06/03 11:31:20;;;;;;;7.50;3.30;;;;;24.80;97080.00;;;;4996703;28;20238;-69
2023/06/03 11:34:28;;;;;;;6.33;3.40;;;;;26.30;97078.00;;;;4989430;28;20203;-69
2023/06/03 11:37:19;;;;;;;4.57;3.80;;;;;26.50;97023.00;;;;4991663;28;20237;-70
2023/06/03 11:40:09;;;;;;;7.13;4.00;;;;;27.30;97023.00;;;;4991825;28;20214;-71
2023/06/03 11:43:08;;;;;;;6.20;3.60;;;;;28.10;97044.00;;;;4986906;28;20220;-72
2023/06/03 11:46:06;;;;;;;4.65;3.35;;;;;27.90;97007.00;;;;4989545;28;20211;-72
2023/06/03 11:48:55;;;;;;;5.30;3.33;;;;;26.00;97067.00;;;;4988711;28;20219;-70
2023/06/03 11:51:46;;;;;;;3.53;3.10;;;;;24.80;97065.00;;;;4987475;28;20216;-72
2023/06/03 11:54:36;;;;;;;6.30;3.40;;;;;23.40;97069.00;;;;4990563;28;20206;-67
2023/06/03 11:57:29;;;;;;;4.10;3.67;;;;;24.30;97058.00;;;;4991069;28;20731;-69
2023/06/03 12:00:19;;;;;;;4.87;3.73;;;;;25.40;97085.00;;;;4988743;28;20562;-70
2023/06/03 12:03:15;;;;;;;7.87;4.23;;;;;26.50;97075.00;;;;4992425;28;20216;-69
2023/06/03 12:06:05;;;;;;;4.63;3.13;;;;;26.70;97072.00;;;;4991547;28;20215;-71
2023/06/03 12:08:55;;;;;;;5.27;3.77;;;;;27.10;97070.00;;;;4991083;28;20257;-71
2023/06/03 12:11:44;;;;;;;9.43;4.50;;;;;27.40;97064.00;;;;4986131;28;20731;-71
2023/06/03 12:14:37;;;;;;;3.60;3.23;;;;;27.80;97060.00;;;;4991115;28;20207;-72
2023/06/03 12:17:27;;;;;;;4.93;3.30;;;;;27.30;97055.00;;;;4990345;28;20575;-72
2023/06/03 12:20:24;;;;;;;5.87;4.23;;;;;27.70;97038.00;;;;4990144;28;20724;-72
2023/06/03 12:23:15;;;;;;;7.23;4.43;;;;;26.90;97042.00;;;;4989839;28;20684;-72
2023/06/03 12:26:05;;;;;;;8.17;3.37;;;;;27.70;97055.00;;;;4991253;28;20253;-71
2023/06/03 12:29:04;;;;;;;5.63;3.47;;;;;27.40;97059.00;;;;4988413;28;20698;-71
2023/06/03 12:32:00;;;;;;;6.30;3.77;;;;;27.40;97033.00;;;;4987344;28;20716;-71
2023/06/03 12:34:50;;;;;;;4.13;3.63;;;;;27.50;97043.00;;;;4988336;28;20235;-71
2023/06/03 12:37:39;;;;;;;5.57;3.77;;;;;27.70;97036.00;;;;4986378;28;20236;-72
2023/06/03 12:40:28;;;;;;;5.43;3.97;;;;;28.20;97045.00;;;;4990518;28;20219;-72
2023/06/03 12:43:22;;;;;;;6.77;3.50;;;;;26.90;97041.00;;;;4987097;28;20214;-72
2023/06/03 12:46:16;;;;;;;6.43;3.90;;;;;22.80;97026.00;;;;4990422;28;20600;-73
2023/06/03 12:49:14;;;;;;;7.53;4.10;;;;;22.40;97011.00;;;;4985030;28;20210;-68
2023/06/03 12:52:18;;;;;;;5.47;4.07;;;;;24.10;97013.00;;;;4988166;28;20238;-69
2023/06/03 12:55:10;;;;;;;8.63;4.20;;;;;24.30;97008.00;;;;4989096;28;20206;-70
2023/06/03 12:57:59;;;;;;;7.07;4.10;;;;;24.00;97016.00;;;;4989557;28;20612;-71
2023/06/03 13:00:49;;;;;;;6.50;4.80;;;;;24.70;97020.00;;;;4983321;28;20245;-70
2023/06/03 13:03:39;;;;;;;13.37;5.00;;;;;24.00;97022.00;;;;4989359;28;20206;-71
2023/06/03 13:06:28;;;;;;;5.70;5.03;;;;;23.10;97004.00;;;;4987503;28;20221;-69
2023/06/03 13:09:17;;;;;;;8.60;4.83;;;;;21.90;97013.00;;;;4985757;28;20584;-67
2023/06/03 13:12:06;;;;;;;11.97;4.93;;;;;22.60;97016.00;;;;4987944;28;20230;-70
2023/06/03 13:14:56;;;;;;;8.13;5.93;;;;;23.80;97018.00;;;;4993093;28;20213;-71
2023/06/03 13:17:47;;;;;;;5.03;4.30;;;;;24.90;97010.00;;;;4998926;28;20607;-72
2023/06/03 13:20:36;;;;;;;5.93;4.40;;;;;24.60;97009.00;;;;4999240;28;20202;-71
2023/06/03 13:23:25;;;;;;;6.33;4.60;;;;;24.10;97013.00;;;;4998285;28;20194;-70
2023/06/03 13:26:14;;;;;;;6.73;4.13;;;;;24.80;97014.00;;;;4992091;28;20620;-71
2023/06/03 13:29:03;;;;;;;7.13;4.73;;;;;25.20;97007.00;;;;4987417;28;20213;-70
2023/06/03 13:31:52;;;;;;;4.93;4.10;;;;;25.40;96998.00;;;;5000721;23;20239;-74
2023/06/03 13:34:43;;;;;;;6.03;4.23;;;;;25.70;96991.00;;;;4964725;28;20203;-73
2023/06/03 13:37:32;;;;;;;6.10;4.63;;;;;26.10;96984.00;;;;4963332;28;20688;-74
2023/06/03 13:40:21;;;;;;;6.37;4.57;;;;;26.40;96987.00;;;;4966110;28;20203;-74
2023/06/03 13:43:10;;;;;;;6.03;3.60;;;;;26.40;96996.00;;;;4946257;29;20215;-74
2023/06/03 13:45:59;;;;;;;5.03;4.37;;;;;26.50;96991.00;;;;4946123;28;20216;-74
2023/06/03 13:48:49;;;;;;;6.90;5.17;;;;;26.70;96975.00;;;;4947687;28;20204;-74
2023/06/03 13:51:39;;;;;;;6.63;4.00;;;;;27.00;96970.00;;;;4952456;28;20258;-73
2023/06/03 13:54:28;;;;;;;9.23;6.03;;;;;26.90;96988.00;;;;4952042;29;20226;-74
2023/06/03 13:57:17;;;;;;;4.40;3.43;;;;;27.10;96975.00;;;;4953774;29;20204;-74
2023/06/03 14:00:08;;;;;;;7.63;4.20;;;;;27.20;96978.00;;;;4951591;29;20239;-74
2023/06/03 14:02:57;;;;;;;6.17;4.33;;;;;26.90;96959.00;;;;4951076;29;20248;-75
2023/06/03 14:05:46;;;;;;;12.70;5.35;;;;;27.20;96952.00;;;;4952856;29;20212;-74
2023/06/03 14:08:37;;;;;;;7.30;4.10;;;;;25.30;96968.00;;;;4949564;29;20205;-75
2023/06/03 14:11:26;;;;;;;6.10;4.50;;;;;25.60;96965.00;;;;4950006;28;20431;-75
2023/06/03 14:14:15;;;;;;;6.17;4.37;;;;;25.10;96944.00;;;;4945785;28;20210;-75
2023/06/03 14:17:04;;;;;;;14.83;4.97;;;;;27.20;96927.00;;;;4949048;29;20212;-75